Time;durP1;ratioP1;P1;durP2;ratioP2;P2;SDS_P1;SDS_P2;PMS_P1;PMS_P2;Temp;Humidity;BMP_temperature;BMP_pressure;BME280_temperature;BME280_humidity;BME280_pressure;Samples;Min_cycle;Max_cycle;Signal;HPM_P1;HPM_P2
2021/04/01 00:00:37;;;;;;;32.28;20.33;;;;;;;;;;5018202;28;20124;-73
2021/04/01 00:03:03;;;;;;;33.13;19.23;;;;;;;;;;5035950;28;20079;-73
2021/04/01 00:05:29;;;;;;;39.75;19.98;;;;;;;;;;5035874;28;20462;-73
2021/04/01 00:07:54;;;;;;;37.38;20.25;;;;;;;;;;5018446;28;20025;-73
2021/04/01 00:10:21;;;;;;;32.28;17.23;;;;;;;;;;5036231;28;20172;-73
2021/04/01 00:12:46;;;;;;;22.63;13.50;;;;;;;;;;5035667;28;20017;-64
2021/04/01 00:15:12;;;;;;;20.15;11.80;;;;;;;;;;5035808;28;20025;-64
2021/04/01 00:17:39;;;;;;;19.75;12.52;;;;;;;;;;5035915;28;20087;-64
2021/04/01 00:20:06;;;;;;;25.33;15.38;;;;;;;;;;5035107;28;20055;-64
2021/04/01 00:22:32;;;;;;;33.83;18.35;;;;;;;;;;5035111;28;20136;-64
2021/04/01 00:24:57;;;;;;;29.08;17.45;;;;;;;;;;5035844;28;20079;-64
2021/04/01 00:27:24;;;;;;;26.30;15.60;;;;;;;;;;5017948;28;20036;-64
2021/04/01 00:29:49;;;;;;;27.75;16.75;;;;;;;;;;5035417;28;20036;-64
2021/04/01 00:32:15;;;;;;;26.55;15.95;;;;;;;;;;5035114;28;20421;-64
2021/04/01 00:34:40;;;;;;;26.73;15.43;;;;;;;;;;5035247;28;20144;-64
2021/04/01 00:37:06;;;;;;;23.52;15.00;;;;;;;;;;5035381;28;20037;-64
2021/04/01 00:39:31;;;;;;;23.23;14.20;;;;;;;;;;5017673;28;20026;-64
2021/04/01 00:41:57;;;;;;;21.70;14.80;;;;;;;;;;5035635;28;20013;-64
2021/04/01 00:44:22;;;;;;;20.95;13.10;;;;;;;;;;5017596;28;20026;-64
2021/04/01 00:46:48;;;;;;;25.23;15.20;;;;;;;;;;5035429;28;20385;-64
2021/04/01 00:49:14;;;;;;;22.45;13.63;;;;;;;;;;5035284;28;20034;-64
2021/04/01 00:51:39;;;;;;;22.88;13.00;;;;;;;;;;5035045;28;20442;-64
2021/04/01 00:54:05;;;;;;;20.00;12.65;;;;;;;;;;5034836;28;20078;-64
2021/04/01 00:56:30;;;;;;;18.77;11.20;;;;;;;;;;5017419;28;20021;-64
2021/04/01 00:58:56;;;;;;;16.17;10.25;;;;;;;;;;5017052;28;20026;-64
2021/04/01 01:03:48;;;;;;;17.92;10.00;;;;;;;;;;5026783;28;20040;-64
2021/04/01 01:06:14;;;;;;;15.52;9.88;;;;;;;;;;5017231;28;20025;-64
2021/04/01 01:08:39;;;;;;;16.40;11.23;;;;;;;;;;5017120;28;20029;-63
2021/04/01 01:11:04;;;;;;;17.30;10.95;;;;;;;;;;5034947;28;20112;-64
2021/04/01 01:13:30;;;;;;;19.08;11.45;;;;;;;;;;5034122;28;20044;-64
2021/04/01 01:15:56;;;;;;;17.67;10.88;;;;;;;;;;5016566;28;20121;-65
2021/04/01 01:18:22;;;;;;;19.20;10.93;;;;;;;;;;5017060;28;20029;-64
2021/04/01 01:20:48;;;;;;;16.00;10.90;;;;;;;;;;5034225;28;20069;-64
2021/04/01 01:23:13;;;;;;;17.38;10.85;;;;;;;;;;5034453;28;20033;-64
2021/04/01 01:25:39;;;;;;;17.20;11.23;;;;;;;;;;5034727;28;20036;-64
2021/04/01 01:28:05;;;;;;;21.17;12.05;;;;;;;;;;5034459;28;20120;-64
2021/04/01 01:30:33;;;;;;;20.77;12.30;;;;;;;;;;5016893;28;20068;-64
2021/04/01 01:33:02;;;;;;;23.08;12.63;;;;;;;;;;5034121;28;20393;-64
2021/04/01 01:35:28;;;;;;;30.05;14.20;;;;;;;;;;5034631;28;20035;-64
2021/04/01 01:37:55;;;;;;;25.33;16.00;;;;;;;;;;5034416;28;20420;-64
2021/04/01 01:40:21;;;;;;;22.05;14.00;;;;;;;;;;5033962;28;20024;-64
2021/04/01 01:42:49;;;;;;;26.58;15.00;;;;;;;;;;5016474;28;20069;-64
2021/04/01 01:45:14;;;;;;;24.15;14.57;;;;;;;;;;5033839;28;20029;-64
2021/04/01 01:47:41;;;;;;;20.65;13.20;;;;;;;;;;5033866;28;20029;-64
2021/04/01 01:50:09;;;;;;;23.05;14.50;;;;;;;;;;5016382;28;20025;-64
2021/04/01 01:52:34;;;;;;;20.75;13.70;;;;;;;;;;5033752;28;20362;-64
2021/04/01 01:55:00;;;;;;;23.10;14.55;;;;;;;;;;5015989;28;20044;-64
2021/04/01 01:57:25;;;;;;;28.30;16.63;;;;;;;;;;5034421;28;20049;-64
2021/04/01 01:59:51;;;;;;;30.00;17.60;;;;;;;;;;5016092;28;20009;-64
2021/04/01 02:02:16;;;;;;;29.27;18.42;;;;;;;;;;5033632;28;20481;-65
2021/04/01 02:04:43;;;;;;;29.55;18.23;;;;;;;;;;5016134;28;20024;-64
2021/04/01 02:07:09;;;;;;;29.08;17.88;;;;;;;;;;5033953;28;20033;-64
2021/04/01 02:09:35;;;;;;;29.48;17.63;;;;;;;;;;5015704;28;20059;-64
2021/04/01 02:12:00;;;;;;;27.48;17.00;;;;;;;;;;5033570;28;20037;-63
2021/04/01 02:14:26;;;;;;;26.33;16.73;;;;;;;;;;5033727;28;20104;-63
2021/04/01 02:16:56;;;;;;;29.35;17.95;;;;;;;;;;5015733;28;20048;-63
2021/04/01 02:19:21;;;;;;;33.13;19.05;;;;;;;;;;5033139;28;20013;-64
2021/04/01 02:21:47;;;;;;;30.23;19.25;;;;;;;;;;5033792;28;20041;-64
2021/04/01 02:24:12;;;;;;;33.03;19.90;;;;;;;;;;4999678;28;20025;-64
2021/04/01 02:26:38;;;;;;;33.58;19.75;;;;;;;;;;5015101;28;20056;-64
2021/04/01 02:29:03;;;;;;;30.13;19.05;;;;;;;;;;5015822;28;20473;-65
2021/04/01 02:31:29;;;;;;;29.00;18.00;;;;;;;;;;5015926;28;20063;-65
2021/04/01 02:33:54;;;;;;;30.95;18.67;;;;;;;;;;5015604;28;20029;-73
2021/04/01 02:36:20;;;;;;;32.10;18.67;;;;;;;;;;5033278;28;20033;-73
2021/04/01 02:38:46;;;;;;;31.65;18.70;;;;;;;;;;5033179;28;20493;-73
2021/04/01 02:41:11;;;;;;;28.33;18.13;;;;;;;;;;5015996;28;20025;-73
2021/04/01 02:43:37;;;;;;;27.80;19.10;;;;;;;;;;5015930;28;20022;-73
2021/04/01 02:46:04;;;;;;;31.40;19.40;;;;;;;;;;5033309;28;20124;-73
2021/04/01 02:48:29;;;;;;;30.08;19.63;;;;;;;;;;5033660;28;20021;-72
2021/04/01 02:50:55;;;;;;;30.73;18.95;;;;;;;;;;5033200;28;20037;-73
2021/04/01 02:53:21;;;;;;;27.42;19.35;;;;;;;;;;5033126;28;20101;-72
2021/04/01 02:55:46;;;;;;;28.02;19.60;;;;;;;;;;5032956;28;20057;-73
2021/04/01 02:58:12;;;;;;;32.22;19.27;;;;;;;;;;5015620;28;20017;-72
2021/04/01 03:00:38;;;;;;;33.22;19.58;;;;;;;;;;5015577;28;20029;-73
2021/04/01 03:03:28;;;;;;;30.92;19.02;;;;;;;;;;5033353;28;20045;-72
2021/04/01 03:05:50;;;;;;;31.08;20.13;;;;;;;;;;5032674;28;20054;-73
2021/04/01 03:08:15;;;;;;;26.90;17.63;;;;;;;;;;5015619;28;20124;-73
2021/04/01 03:10:41;;;;;;;27.00;18.58;;;;;;;;;;5032944;28;20045;-73
2021/04/01 03:13:08;;;;;;;31.05;18.60;;;;;;;;;;5032930;28;20109;-73
2021/04/01 03:15:34;;;;;;;29.30;17.85;;;;;;;;;;5033135;28;20068;-73
2021/04/01 03:18:00;;;;;;;28.13;18.40;;;;;;;;;;5032935;28;20026;-73
2021/04/01 03:20:25;;;;;;;35.33;19.65;;;;;;;;;;5014588;28;20052;-72
2021/04/01 03:22:51;;;;;;;29.02;19.10;;;;;;;;;;5015027;28;20044;-72
2021/04/01 03:25:17;;;;;;;32.33;20.00;;;;;;;;;;5032947;28;20037;-73
2021/04/01 03:27:43;;;;;;;32.70;19.60;;;;;;;;;;5033122;28;20068;-73
2021/04/01 03:30:11;;;;;;;29.50;18.95;;;;;;;;;;5032913;28;20021;-73
2021/04/01 03:32:38;;;;;;;31.23;18.65;;;;;;;;;;5015165;28;20057;-73
2021/04/01 03:35:04;;;;;;;28.80;18.05;;;;;;;;;;5033024;28;20040;-73
2021/04/01 03:37:29;;;;;;;41.78;18.48;;;;;;;;;;5034543;28;20025;-73
2021/04/01 03:39:55;;;;;;;34.15;18.80;;;;;;;;;;5036536;28;20039;-73
2021/04/01 03:42:21;;;;;;;29.55;18.10;;;;;;;;;;5001902;28;20018;-73
2021/04/01 03:44:46;;;;;;;34.95;19.05;;;;;;;;;;5035992;28;20052;-73
2021/04/01 03:47:12;;;;;;;31.15;19.10;;;;;;;;;;5018322;28;20068;-73
2021/04/01 03:49:38;;;;;;;30.13;18.40;;;;;;;;;;5035779;28;20071;-73
2021/04/01 03:52:03;;;;;;;29.70;19.65;;;;;;;;;;5035768;28;20025;-72
2021/04/01 03:54:29;;;;;;;30.75;19.10;;;;;;;;;;5017976;28;20045;-72
2021/04/01 03:56:54;;;;;;;31.38;20.00;;;;;;;;;;5035382;28;20014;-72
2021/04/01 03:59:24;;;;;;;31.95;20.45;;;;;;;;;;5018407;28;20059;-64
2021/04/01 04:14:33;;;;;;;31.33;21.65;;;;;;;;;;5036024;28;20048;-64
2021/04/01 04:16:59;;;;;;;28.92;20.30;;;;;;;;;;5034902;28;20025;-64
2021/04/01 04:19:24;;;;;;;31.30;20.42;;;;;;;;;;5034883;28;20496;-65
2021/04/01 04:21:49;;;;;;;30.05;20.25;;;;;;;;;;5035700;28;20064;-64
2021/04/01 04:24:15;;;;;;;31.95;21.08;;;;;;;;;;5013196;28;20429;-64
2021/04/01 04:26:42;;;;;;;36.20;21.17;;;;;;;;;;5034984;28;20056;-64
2021/04/01 04:29:07;;;;;;;33.88;20.88;;;;;;;;;;5017009;28;20463;-64
2021/04/01 04:31:32;;;;;;;33.53;21.65;;;;;;;;;;5035243;28;20061;-64
2021/04/01 04:33:58;;;;;;;32.88;20.67;;;;;;;;;;5035022;28;20381;-64
2021/04/01 04:36:23;;;;;;;31.00;20.33;;;;;;;;;;5001102;28;20121;-64
2021/04/01 04:38:49;;;;;;;31.58;20.60;;;;;;;;;;5017308;28;20359;-64
2021/04/01 04:41:14;;;;;;;32.03;20.30;;;;;;;;;;5017517;28;20029;-64
2021/04/01 04:43:40;;;;;;;29.50;19.58;;;;;;;;;;5033529;28;20097;-73
2021/04/01 04:46:06;;;;;;;36.13;20.10;;;;;;;;;;5017037;28;20120;-73
2021/04/01 04:48:31;;;;;;;32.78;19.80;;;;;;;;;;5034250;28;20030;-64
2021/04/01 04:50:57;;;;;;;31.73;20.35;;;;;;;;;;5034476;28;20057;-64
2021/04/01 04:53:23;;;;;;;34.88;21.05;;;;;;;;;;5016996;28;20112;-64
2021/04/01 04:58:32;;;;;;;33.58;21.48;;;;;;;;;;5049736;28;20061;-64
2021/04/01 05:06:44;;;;;;;52.88;34.30;;;;;;;;;;5034688;28;20551;-64
2021/04/01 05:09:09;;;;;;;44.72;28.25;;;;;;;;;;5034359;28;20040;-64
2021/04/01 05:11:34;;;;;;;67.18;39.63;;;;;;;;;;5034505;28;20027;-64
2021/04/01 05:14:00;;;;;;;101.70;55.80;;;;;;;;;;5016648;28;20474;-64
2021/04/01 05:16:26;;;;;;;92.15;53.35;;;;;;;;;;5034367;28;20017;-64
2021/04/01 05:18:52;;;;;;;60.97;35.53;;;;;;;;;;5015085;28;20390;-64
2021/04/01 05:21:19;;;;;;;44.17;27.50;;;;;;;;;;5033451;28;20037;-64
2021/04/01 05:23:55;;;;;;;40.42;23.50;;;;;;;;;;5048125;28;20056;-64
2021/04/01 05:28:54;;;;;;;50.97;28.73;;;;;;;;;;5033165;28;20029;-65
2021/04/01 05:31:22;;;;;;;66.55;33.28;;;;;;;;;;5032995;28;20592;-65
2021/04/01 05:33:49;;;;;;;66.82;34.30;;;;;;;;;;5033077;28;20113;-65
2021/04/01 05:36:27;;;;;;;42.20;26.13;;;;;;;;;;5033218;28;20030;-65
2021/04/01 05:38:54;;;;;;;37.13;22.65;;;;;;;;;;5034066;28;20048;-65
2021/04/01 05:41:23;;;;;;;31.58;20.55;;;;;;;;;;5033775;28;20020;-65
2021/04/01 05:43:52;;;;;;;30.67;19.95;;;;;;;;;;5033879;28;20040;-65
2021/04/01 05:46:26;;;;;;;39.87;24.97;;;;;;;;;;5033463;28;20441;-65
2021/04/01 06:00:14;;;;;;;39.63;23.35;;;;;;;;;;5033377;28;20036;-64
2021/04/01 06:03:19;;;;;;;47.50;28.73;;;;;;;;;;5033724;28;20029;-65
2021/04/01 06:05:37;;;;;;;43.95;24.70;;;;;;;;;;5029452;28;20092;-65
2021/04/01 06:08:08;;;;;;;43.28;24.35;;;;;;;;;;5015686;28;20040;-65
2021/04/01 06:10:35;;;;;;;40.83;24.25;;;;;;;;;;5033460;28;20108;-65
2021/04/01 06:13:02;;;;;;;34.22;20.10;;;;;;;;;;5033190;28;20128;-64
2021/04/01 06:15:28;;;;;;;40.33;23.38;;;;;;;;;;5015612;28;20111;-64
2021/04/01 06:18:01;;;;;;;38.40;21.30;;;;;;;;;;5033157;28;20022;-65
2021/04/01 06:20:27;;;;;;;28.63;15.98;;;;;;;;;;5032836;28;20128;-64
2021/04/01 06:22:54;;;;;;;31.02;18.15;;;;;;;;;;5033122;28;20030;-64
2021/04/01 06:25:20;;;;;;;32.10;15.82;;;;;;;;;;5033148;28;20029;-64
2021/04/01 06:27:52;;;;;;;30.02;15.52;;;;;;;;;;5033100;28;20604;-64
2021/04/01 06:32:49;;;;;;;24.92;14.40;;;;;;;;;;5032889;28;20071;-64
2021/04/01 06:35:26;;;;;;;26.73;15.57;;;;;;;;;;5033180;28;20034;-64
2021/04/01 06:40:37;;;;;;;22.73;13.57;;;;;;;;;;5033173;28;20038;-64
2021/04/01 06:43:23;;;;;;;27.00;15.70;;;;;;;;;;5033112;28;20025;-64
2021/04/01 06:45:56;;;;;;;24.10;15.52;;;;;;;;;;5025670;28;20057;-64
2021/04/01 06:48:24;;;;;;;22.67;12.13;;;;;;;;;;5033131;28;20397;-64
2021/04/01 06:50:59;;;;;;;23.85;13.45;;;;;;;;;;5048401;28;20079;-64
2021/04/01 06:53:37;;;;;;;27.20;17.52;;;;;;;;;;5032905;28;20396;-64
2021/04/01 06:56:54;;;;;;;19.63;12.98;;;;;;;;;;5033081;28;20025;-64
2021/04/01 07:01:55;;;;;;;19.48;11.82;;;;;;;;;;5032820;28;20038;-64
2021/04/01 07:04:22;;;;;;;21.77;13.47;;;;;;;;;;5032985;28;20091;-64
2021/04/01 07:06:50;;;;;;;18.48;10.38;;;;;;;;;;5032704;28;20032;-64
2021/04/01 07:12:23;;;;;;;24.42;14.45;;;;;;;;;;5033737;28;20505;-64
2021/04/01 07:14:50;;;;;;;21.00;12.23;;;;;;;;;;5036604;28;20075;-61
2021/04/01 07:17:26;;;;;;;21.23;12.77;;;;;;;;;;5036732;28;20041;-61
2021/04/01 07:47:04;;;;;;;23.45;12.70;;;;;;;;;;5036278;28;20029;-61
2021/04/01 07:49:31;;;;;;;18.88;12.68;;;;;;;;;;5036001;28;20461;-63
2021/04/01 07:52:00;;;;;;;23.77;12.90;;;;;;;;;;5035757;28;20416;-61
2021/04/01 07:54:27;;;;;;;19.83;11.98;;;;;;;;;;5018105;28;20060;-61
2021/04/01 07:57:07;;;;;;;26.88;15.75;;;;;;;;;;5035851;28;20036;-61
2021/04/01 08:02:44;;;;;;;22.20;11.68;;;;;;;;;;4989993;28;20061;-61
2021/04/01 08:05:12;;;;;;;21.38;11.25;;;;;;;;;;5035670;28;20474;-61
2021/04/01 08:07:42;;;;;;;20.30;12.23;;;;;;;;;;5035610;28;20128;-61
2021/04/01 08:10:08;;;;;;;17.70;11.73;;;;;;;;;;5035668;28;20393;-61
2021/04/01 08:12:43;;;;;;;19.50;10.95;;;;;;;;;;5035559;28;20025;-60
2021/04/01 08:15:11;;;;;;;22.08;13.10;;;;;;;;;;5035476;28;20069;-60
2021/04/01 08:17:51;;;;;;;20.73;12.63;;;;;;;;;;5035532;28;20044;-60
2021/04/01 08:20:19;;;;;;;22.88;11.73;;;;;;;;;;5050238;28;20041;-61
2021/04/01 08:22:52;;;;;;;20.15;11.38;;;;;;;;;;5017194;28;20033;-61
2021/04/01 08:25:20;;;;;;;24.42;12.88;;;;;;;;;;5034603;28;20029;-61
2021/04/01 08:28:01;;;;;;;19.52;10.23;;;;;;;;;;5035332;28;20385;-61
2021/04/01 08:33:25;;;;;;;22.48;11.93;;;;;;;;;;5035059;28;20038;-61
2021/04/01 08:35:54;;;;;;;20.27;12.40;;;;;;;;;;5035235;28;20025;-61
2021/04/01 08:38:21;;;;;;;25.48;11.82;;;;;;;;;;5035137;28;20018;-61
2021/04/01 08:40:47;;;;;;;23.60;12.45;;;;;;;;;;5034997;28;20067;-61
2021/04/01 08:43:37;;;;;;;23.83;11.80;;;;;;;;;;5035065;28;20033;-61
2021/04/01 08:46:02;;;;;;;21.35;11.95;;;;;;;;;;5017441;28;20129;-61
2021/04/01 08:48:47;;;;;;;20.95;11.52;;;;;;;;;;5034852;28;20120;-61
2021/04/01 08:51:19;;;;;;;21.63;10.63;;;;;;;;;;5050195;28;20038;-61
2021/04/01 08:54:04;;;;;;;18.63;11.43;;;;;;;;;;5034676;28;20125;-61
2021/04/01 08:56:31;;;;;;;19.98;10.07;;;;;;;;;;5017068;28;20496;-61
2021/04/01 08:59:01;;;;;;;14.30;9.40;;;;;;;;;;5034777;28;20117;-61
2021/04/01 09:01:27;;;;;;;;;;;;;;;;;;5050365;28;20029;-61
2021/04/01 09:03:52;;;;;;;20.48;12.43;;;;;;;;;;5000527;28;19905;-61
2021/04/01 09:06:19;;;;;;;18.40;10.70;;;;;;;;;;5034592;28;20116;-61
2021/04/01 09:09:00;;;;;;;26.02;11.98;;;;;;;;;;5034370;28;20021;-61
2021/04/01 09:11:35;;;;;;;21.38;12.57;;;;;;;;;;5016657;28;20424;-61
2021/04/01 09:14:11;;;;;;;24.20;13.63;;;;;;;;;;5049629;28;20136;-61
2021/04/01 09:16:38;;;;;;;19.35;10.63;;;;;;;;;;5034327;28;20052;-61
2021/04/01 09:19:04;;;;;;;17.27;10.32;;;;;;;;;;5034315;28;20013;-61
2021/04/01 09:21:31;;;;;;;23.00;12.00;;;;;;;;;;5049513;28;20046;-61
2021/04/01 09:23:56;;;;;;;27.55;12.30;;;;;;;;;;5033983;28;20034;-61
2021/04/01 09:26:24;;;;;;;24.67;13.38;;;;;;;;;;5034257;28;20112;-61
2021/04/01 09:28:51;;;;;;;20.08;11.88;;;;;;;;;;5034181;28;20017;-66
2021/04/01 09:31:17;;;;;;;20.17;9.13;;;;;;;;;;5034208;28;20026;-67
2021/04/01 09:33:43;;;;;;;16.17;8.95;;;;;;;;;;5015976;28;20028;-66
2021/04/01 09:36:14;;;;;;;19.35;10.82;;;;;;;;;;5015792;28;20052;-70
2021/04/01 09:38:48;;;;;;;15.60;8.68;;;;;;;;;;5016338;28;20489;-64
2021/04/01 09:41:27;;;;;;;25.65;13.55;;;;;;;;;;5034324;28;20030;-64
2021/04/01 09:43:53;;;;;;;24.20;13.52;;;;;;;;;;5049660;28;20047;-71
2021/04/01 09:46:20;;;;;;;21.50;12.30;;;;;;;;;;5034216;28;20014;-71
2021/04/01 09:48:49;;;;;;;14.82;8.38;;;;;;;;;;5034336;28;20048;-70
2021/04/01 09:51:19;;;;;;;22.38;11.30;;;;;;;;;;5016586;28;20074;-71
2021/04/01 09:53:52;;;;;;;27.98;13.18;;;;;;;;;;5049207;28;20033;-72
2021/04/01 09:56:20;;;;;;;22.92;11.30;;;;;;;;;;5033797;28;20029;-72
2021/04/01 09:58:48;;;;;;;16.38;9.45;;;;;;;;;;5034079;28;20025;-72
2021/04/01 10:03:43;;;;;;;16.65;9.55;;;;;;;;;;5016226;28;20564;-72
2021/04/01 10:06:09;;;;;;;20.00;11.80;;;;;;;;;;5034025;28;20033;-70
2021/04/01 10:08:36;;;;;;;22.23;12.18;;;;;;;;;;5033746;28;20044;-68
2021/04/01 10:11:08;;;;;;;22.60;11.68;;;;;;;;;;5033880;28;20026;-68
2021/04/01 10:13:33;;;;;;;16.42;9.23;;;;;;;;;;5015427;28;20033;-68
2021/04/01 10:15:59;;;;;;;9.90;6.25;;;;;;;;;;5048535;28;20500;-66
2021/04/01 10:18:31;;;;;;;16.13;9.63;;;;;;;;;;5033829;28;20079;-66
2021/04/01 10:21:04;;;;;;;20.17;11.77;;;;;;;;;;5033377;28;20067;-62
2021/04/01 10:23:41;;;;;;;16.20;9.98;;;;;;;;;;5048863;28;20061;-62
2021/04/01 10:26:09;;;;;;;11.73;8.00;;;;;;;;;;5015688;28;20079;-62
2021/04/01 10:31:11;;;;;;;13.13;8.85;;;;;;;;;;5033194;28;20061;-62
2021/04/01 10:33:41;;;;;;;12.07;7.90;;;;;;;;;;5033188;28;20022;-62
2021/04/01 10:36:08;;;;;;;16.90;9.25;;;;;;;;;;5031993;28;20040;-62
2021/04/01 10:38:36;;;;;;;14.75;8.80;;;;;;;;;;5008041;28;20040;-62
2021/04/01 10:41:11;;;;;;;14.95;7.75;;;;;;;;;;5028808;28;20040;-63
2021/04/01 10:43:44;;;;;;;14.45;8.38;;;;;;;;;;5028451;28;20508;-62
2021/04/01 10:46:17;;;;;;;13.60;6.80;;;;;;;;;;5043940;28;20041;-62
2021/04/01 10:49:10;;;;;;;8.48;6.00;;;;;;;;;;5031071;28;20033;-62
2021/04/01 10:51:51;;;;;;;8.80;4.90;;;;;;;;;;5033975;28;20025;-63
2021/04/01 10:54:18;;;;;;;14.02;7.40;;;;;;;;;;5037193;28;20029;-63
2021/04/01 10:56:45;;;;;;;15.75;8.70;;;;;;;;;;5022842;28;20110;-63
2021/04/01 10:59:12;;;;;;;14.15;6.97;;;;;;;;;;5017305;28;20025;-62
2021/04/01 11:01:41;;;;;;;10.90;6.40;;;;;;;;;;4999752;28;20018;-63
2021/04/01 11:04:09;;;;;;;12.70;7.57;;;;;;;;;;5034521;28;20041;-62
2021/04/01 11:06:35;;;;;;;14.27;8.43;;;;;;;;;;5036813;28;20518;-63
2021/04/01 11:09:01;;;;;;;11.63;7.22;;;;;;;;;;5036655;28;20030;-63
2021/04/01 11:11:47;;;;;;;12.35;7.25;;;;;;;;;;5037374;28;20036;-63
2021/04/01 11:14:15;;;;;;;10.65;6.20;;;;;;;;;;5037211;28;20100;-63
2021/04/01 11:16:40;;;;;;;11.13;7.78;;;;;;;;;;5036873;28;20025;-63
2021/04/01 11:19:07;;;;;;;9.98;6.13;;;;;;;;;;5019225;28;20063;-63
2021/04/01 11:21:33;;;;;;;10.05;5.53;;;;;;;;;;5036526;28;20179;-63
2021/04/01 11:24:00;;;;;;;9.95;7.45;;;;;;;;;;5036477;28;20029;-63
2021/04/01 11:26:27;;;;;;;8.65;5.88;;;;;;;;;;5036616;28;20030;-63
2021/04/01 11:28:54;;;;;;;7.32;4.20;;;;;;;;;;5036639;28;20132;-63
2021/04/01 11:31:23;;;;;;;4.75;2.22;;;;;;;;;;5036676;28;20056;-63
2021/04/01 11:33:52;;;;;;;7.13;5.18;;;;;;;;;;5018651;28;20029;-63
2021/04/01 11:36:21;;;;;;;8.15;5.18;;;;;;;;;;5028919;28;20378;-63
2021/04/01 11:41:45;;;;;;;10.75;7.70;;;;;;;;;;5003531;28;21181;-62
2021/04/01 11:44:11;;;;;;;10.00;6.47;;;;;;;;;;5018721;28;20104;-63
2021/04/01 11:46:37;;;;;;;11.57;7.55;;;;;;;;;;5036080;28;20049;-63
2021/04/01 11:49:03;;;;;;;7.45;5.10;;;;;;;;;;5036686;28;20033;-62
2021/04/01 11:51:30;;;;;;;9.75;5.97;;;;;;;;;;5018696;28;20543;-62
2021/04/01 11:53:56;;;;;;;10.25;6.70;;;;;;;;;;5018592;28;20103;-62
2021/04/01 11:56:23;;;;;;;6.75;4.63;;;;;;;;;;5036131;28;20064;-62
2021/04/01 11:58:49;;;;;;;9.98;6.05;;;;;;;;;;5017946;28;20029;-63
2021/04/01 12:01:28;;;;;;;11.40;7.28;;;;;;;;;;5035606;28;20045;-62
2021/04/01 12:04:02;;;;;;;8.57;5.32;;;;;;;;;;5016891;28;20033;-63
2021/04/01 12:06:29;;;;;;;4.97;3.97;;;;;;;;;;5017063;28;20029;-63
2021/04/01 12:08:56;;;;;;;9.65;6.45;;;;;;;;;;5035049;28;20028;-63
2021/04/01 12:11:24;;;;;;;9.38;6.82;;;;;;;;;;5035641;28;20033;-63
2021/04/01 12:13:50;;;;;;;11.73;8.50;;;;;;;;;;5017026;28;20445;-63
2021/04/01 12:16:21;;;;;;;12.82;6.20;;;;;;;;;;5035984;28;20040;-63
2021/04/01 12:18:47;;;;;;;13.38;7.45;;;;;;;;;;5018283;28;20053;-63
2021/04/01 12:21:14;;;;;;;9.65;5.75;;;;;;;;;;5035447;28;20050;-63
2021/04/01 12:23:50;;;;;;;7.72;5.05;;;;;;;;;;5035697;28;20029;-57
2021/04/01 12:26:17;;;;;;;11.68;7.47;;;;;;;;;;5035878;28;20424;-58
2021/04/01 12:28:42;;;;;;;12.68;9.10;;;;;;;;;;5017816;28;20032;-65
2021/04/01 12:31:17;;;;;;;14.32;8.77;;;;;;;;;;5050980;28;20083;-66
2021/04/01 12:33:48;;;;;;;13.07;8.48;;;;;;;;;;5034829;28;20044;-66
2021/04/01 12:36:14;;;;;;;;;;;;;;;;;;5035910;28;20030;-65
2021/04/01 12:38:42;;;;;;;12.07;7.90;;;;;;;;;;5035455;28;20264;-67
2021/04/01 12:41:20;;;;;;;13.52;8.38;;;;;;;;;;5017717;28;20049;-68
2021/04/01 12:43:47;;;;;;;13.48;7.93;;;;;;;;;;5035422;28;20037;-76
2021/04/01 12:46:13;;;;;;;10.00;7.25;;;;;;;;;;5035492;28;20021;-76
2021/04/01 12:48:40;;;;;;;9.85;6.43;;;;;;;;;;5035355;28;20040;-76
2021/04/01 12:51:09;;;;;;;14.35;8.35;;;;;;;;;;5035050;28;20017;-76
2021/04/01 12:53:36;;;;;;;10.00;5.35;;;;;;;;;;5017347;28;20091;-76
2021/04/01 12:56:24;;;;;;;9.35;7.05;;;;;;;;;;5034669;28;20021;-76
2021/04/01 12:59:15;;;;;;;10.13;6.90;;;;;;;;;;5035130;28;20113;-76
2021/04/01 13:01:45;;;;;;;11.50;8.07;;;;;;;;;;5034410;28;20071;-75
2021/04/01 13:04:13;;;;;;;12.32;8.52;;;;;;;;;;5016258;28;20025;-75
2021/04/01 13:11:47;;;;;;;9.13;5.60;;;;;;;;;;5016513;28;20375;-75
2021/04/01 13:14:13;;;;;;;11.80;6.43;;;;;;;;;;5049442;28;20119;-75
2021/04/01 13:16:40;;;;;;;9.00;5.45;;;;;;;;;;5013570;28;20588;-76
2021/04/01 13:19:09;;;;;;;9.10;5.80;;;;;;;;;;5033553;28;20029;-76
2021/04/01 13:22:23;;;;;;;6.95;4.57;;;;;;;;;;5035522;28;20037;-76
2021/04/01 13:26:52;;;;;;;7.10;5.35;;;;;;;;;;5033947;28;20028;-75
2021/04/01 13:29:22;;;;;;;9.32;5.07;;;;;;;;;;5034607;28;20028;-74
2021/04/01 13:31:55;;;;;;;5.88;5.25;;;;;;;;;;5026316;28;20029;-75
2021/04/01 13:34:33;;;;;;;7.70;5.75;;;;;;;;;;5033638;28;20037;-74
2021/04/01 13:37:06;;;;;;;8.82;5.55;;;;;;;;;;5019759;28;20021;-74
2021/04/01 13:39:40;;;;;;;8.82;5.25;;;;;;;;;;5018308;28;20025;-75
2021/04/01 13:47:16;;;;;;;8.40;6.32;;;;;;;;;;5033027;28;20025;-75
2021/04/01 13:49:43;;;;;;;6.85;4.07;;;;;;;;;;5033712;28;20040;-74
2021/04/01 14:11:03;;;;;;;10.85;7.18;;;;;;;;;;5047924;28;20033;-73
2021/04/01 14:13:29;;;;;;;13.20;8.10;;;;;;;;;;5033696;28;20025;-73
2021/04/01 14:15:54;;;;;;;10.75;7.10;;;;;;;;;;5033506;28;20033;-73
2021/04/01 14:18:20;;;;;;;8.55;6.40;;;;;;;;;;5033257;28;20041;-74
2021/04/01 14:20:46;;;;;;;10.88;6.93;;;;;;;;;;5033801;28;20448;-74
2021/04/01 14:23:17;;;;;;;12.45;8.05;;;;;;;;;;5048965;28;20029;-74
2021/04/01 14:25:44;;;;;;;11.65;8.52;;;;;;;;;;5033070;28;20406;-64
2021/04/01 14:28:10;;;;;;;14.07;8.73;;;;;;;;;;5032810;28;20079;-64
2021/04/01 14:30:36;;;;;;;12.82;6.78;;;;;;;;;;5015281;28;20431;-64
2021/04/01 14:33:02;;;;;;;13.05;6.82;;;;;;;;;;5032224;28;20112;-64
2021/04/01 14:35:32;;;;;;;8.77;6.40;;;;;;;;;;5032634;28;20122;-64
2021/04/01 14:38:01;;;;;;;13.70;8.77;;;;;;;;;;5033201;28;20043;-64
2021/04/01 14:40:33;;;;;;;10.10;6.80;;;;;;;;;;5032956;28;20140;-64
2021/04/01 14:43:01;;;;;;;10.38;7.00;;;;;;;;;;5013672;28;20033;-64
2021/04/01 14:45:28;;;;;;;11.70;7.47;;;;;;;;;;5031780;28;20045;-64
2021/04/01 14:47:54;;;;;;;12.07;7.97;;;;;;;;;;5032507;28;20033;-64
2021/04/01 14:50:19;;;;;;;12.40;8.52;;;;;;;;;;5032776;28;20377;-64
2021/04/01 14:52:46;;;;;;;11.73;7.32;;;;;;;;;;5032333;28;20033;-64
2021/04/01 14:55:13;;;;;;;12.02;7.28;;;;;;;;;;5032354;28;20049;-64
2021/04/01 14:57:41;;;;;;;10.90;7.18;;;;;;;;;;5047710;28;20457;-64
2021/04/01 15:00:15;;;;;;;13.02;7.43;;;;;;;;;;5032629;28;20465;-64
2021/04/01 15:02:40;;;;;;;11.10;7.15;;;;;;;;;;5032679;28;20116;-64
2021/04/01 15:05:07;;;;;;;8.68;6.90;;;;;;;;;;5032731;28;20061;-63
2021/04/01 15:07:33;;;;;;;12.77;8.27;;;;;;;;;;5032783;28;20397;-63
2021/04/01 15:10:03;;;;;;;12.65;7.60;;;;;;;;;;5032934;28;20025;-63
2021/04/01 15:12:29;;;;;;;9.98;7.75;;;;;;;;;;5032765;28;20497;-64
2021/04/01 15:14:55;;;;;;;14.23;8.43;;;;;;;;;;5032629;28;20040;-64
2021/04/01 15:17:21;;;;;;;10.90;7.95;;;;;;;;;;5014983;28;20029;-64
2021/04/01 15:19:47;;;;;;;10.20;7.50;;;;;;;;;;5032088;28;20049;-64
2021/04/01 15:22:13;;;;;;;11.75;7.95;;;;;;;;;;5032586;28;20018;-64
2021/04/01 15:24:39;;;;;;;16.48;9.68;;;;;;;;;;5032775;28;20030;-64
2021/04/01 15:27:06;;;;;;;12.93;8.10;;;;;;;;;;5015082;28;20524;-64
2021/04/01 15:29:31;;;;;;;12.57;8.45;;;;;;;;;;5047865;28;20040;-64
2021/04/01 15:31:57;;;;;;;14.57;9.00;;;;;;;;;;5032426;28;20029;-64
2021/04/01 15:34:23;;;;;;;14.45;9.20;;;;;;;;;;5035348;28;20022;-64
2021/04/01 15:36:48;;;;;;;14.57;8.68;;;;;;;;;;5018567;28;20032;-64
2021/04/01 15:39:14;;;;;;;16.27;10.32;;;;;;;;;;5036154;28;20021;-64
2021/04/01 15:41:41;;;;;;;15.48;9.15;;;;;;;;;;5035756;28;20140;-64
2021/04/01 15:44:07;;;;;;;11.93;8.65;;;;;;;;;;5036158;28;20056;-63
2021/04/01 15:46:33;;;;;;;20.35;11.27;;;;;;;;;;5035979;28;20520;-64
2021/04/01 15:48:58;;;;;;;19.08;11.55;;;;;;;;;;5036083;28;20017;-64
2021/04/01 15:51:25;;;;;;;17.73;9.93;;;;;;;;;;5051403;28;20057;-64
2021/04/01 15:53:52;;;;;;;12.73;8.98;;;;;;;;;;5035878;28;20508;-64
2021/04/01 15:56:18;;;;;;;16.10;10.23;;;;;;;;;;5035949;28;20028;-64
2021/04/01 15:58:43;;;;;;;15.85;9.70;;;;;;;;;;5051255;28;20057;-64
2021/04/01 16:01:09;;;;;;;15.02;9.40;;;;;;;;;;5035838;28;20040;-64
2021/04/01 16:03:37;;;;;;;19.35;11.68;;;;;;;;;;5035787;28;20043;-64
2021/04/01 16:06:03;;;;;;;15.25;10.18;;;;;;;;;;5018180;28;20029;-64
2021/04/01 16:08:29;;;;;;;17.55;11.43;;;;;;;;;;5035651;28;20025;-64
2021/04/01 16:10:57;;;;;;;20.45;12.43;;;;;;;;;;5035558;28;20427;-64
2021/04/01 16:13:23;;;;;;;20.17;12.75;;;;;;;;;;5035607;28;20461;-64
2021/04/01 16:15:48;;;;;;;21.33;12.73;;;;;;;;;;5035497;28;20028;-64
2021/04/01 16:18:14;;;;;;;21.00;11.35;;;;;;;;;;5001473;28;20408;-64
2021/04/01 16:20:41;;;;;;;22.33;14.00;;;;;;;;;;5035218;28;20053;-71
2021/04/01 16:23:07;;;;;;;28.13;16.48;;;;;;;;;;5017779;28;20062;-71
2021/04/01 16:25:33;;;;;;;26.23;14.27;;;;;;;;;;5035317;28;20111;-70
2021/04/01 16:27:59;;;;;;;31.27;16.17;;;;;;;;;;5035362;28;20473;-71
2021/04/01 16:30:26;;;;;;;26.10;14.15;;;;;;;;;;5035226;28;20056;-71